Airport View

Enter AWOS ICAO identifier for current METAR.

ex. KFNL

KOLE 250215Z AUTO 19007KT 170V230 10SM CLR 17/15 A3011 RMK AO2

25 May 2020 02:18

Frequency: 118.375

Phone: 716-557-2001

Other Area AWOS: KELZ - KBFD - KDSV - KJHW

TAF KBFD 242336Z 2500/2524 15010KT P6SM SCT035 OVC250 FM250400 16010KT P6SM OVC025 FM250800 16005KT P6SM OVC009 FM251000 17005KT P6SM OVC015 FM251400 18006KT P6SM VCSH SCT040 BKN250